Time;durP1;ratioP1;P1;durP2;ratioP2;P2;SDS_P1;SDS_P2;PMS_P1;PMS_P2;Temp;Humidity;BMP_temperature;BMP_pressure;BME280_temperature;BME280_humidity;BME280_pressure;Samples;Min_cycle;Max_cycle;Signal;HPM_P1;HPM_P2
2022/04/25 00:01:05;;;;;;;15.00;9.80;;;;;;;9.18;87.15;97118.48;105871;1276;137805;-74
2022/04/25 00:03:31;;;;;;;13.80;9.60;;;;;;;9.20;87.50;97117.61;106089;1277;22623;-73
2022/04/25 00:05:58;;;;;;;15.90;9.90;;;;;;;9.23;87.14;97112.83;106035;1277;24217;-74
2022/04/25 00:08:25;;;;;;;13.60;10.10;;;;;;;9.23;87.23;97114.40;105787;1277;137166;-73
2022/04/25 00:10:51;;;;;;;13.40;9.40;;;;;;;9.23;87.16;97107.23;106019;1277;22573;-74
2022/04/25 00:13:18;;;;;;;15.00;10.20;;;;;;;9.23;86.72;97106.31;105877;1277;137999;-73
2022/04/25 00:15:44;;;;;;;14.20;10.20;;;;;;;9.21;86.79;97102.02;106130;1277;22559;-73
2022/04/25 00:18:10;;;;;;;15.00;9.50;;;;;;;9.20;86.51;97098.44;106100;1277;22550;-73
2022/04/25 00:20:37;;;;;;;14.20;10.50;;;;;;;9.18;86.57;97101.73;105914;1277;137655;-73
2022/04/25 00:23:05;;;;;;;14.90;9.20;;;;;;;9.12;86.35;97097.00;106102;1277;22733;-74
2022/04/25 00:25:33;;;;;;;15.30;8.60;;;;;;;9.08;86.48;97095.09;105986;1277;139602;-74
2022/04/25 00:28:00;;;;;;;12.40;8.40;;;;;;;9.04;86.28;97098.30;105907;1277;22614;-73
2022/04/25 00:30:28;;;;;;;15.10;8.80;;;;;;;8.97;86.06;97101.26;106148;1277;25451;-74
2022/04/25 00:32:56;;;;;;;13.00;9.10;;;;;;;8.92;86.46;97098.65;105957;1277;137310;-73
2022/04/25 00:35:23;;;;;;;12.50;8.60;;;;;;;8.87;86.42;97101.95;106080;1274;25411;-73
2022/04/25 00:37:50;;;;;;;12.50;8.90;;;;;;;8.81;86.59;97100.84;105919;1277;138126;-73
2022/04/25 00:40:25;;;;;;;14.20;8.30;;;;;;;8.77;86.49;97099.63;105993;1277;22557;-73
2022/04/25 00:43:06;;;;;;;11.20;7.80;;;;;;;8.72;86.88;97104.73;105879;1274;137619;-73
2022/04/25 00:45:34;;;;;;;13.30;8.90;;;;;;;8.71;87.10;97100.38;105937;1274;22568;-74
2022/04/25 00:48:01;;;;;;;14.30;8.80;;;;;;;8.71;87.19;97087.63;106137;1276;22551;-74
2022/04/25 00:50:28;;;;;;;12.40;8.90;;;;;;;8.68;86.82;97080.55;105975;1276;137511;-74
2022/04/25 00:52:57;;;;;;;11.50;8.40;;;;;;;8.62;86.41;97093.35;106364;1274;22588;-74
2022/04/25 00:55:24;;;;;;;15.70;8.80;;;;;;;8.59;86.70;97100.92;105939;1277;138011;-73
2022/04/25 00:57:54;;;;;;;12.60;9.10;;;;;;;8.57;87.06;97101.41;106116;1275;25381;-73
2022/04/25 01:00:21;;;;;;;13.70;9.20;;;;;;;8.56;87.34;97102.72;105935;1277;22678;-73
2022/04/25 01:02:47;;;;;;;14.30;9.10;;;;;;;8.55;87.08;97109.34;105804;1276;137293;-73
2022/04/25 01:05:14;;;;;;;12.40;8.60;;;;;;;8.53;87.26;97113.02;105878;1276;25279;-73
2022/04/25 01:07:40;;;;;;;12.70;8.80;;;;;;;8.52;86.97;97112.09;105986;1276;138199;-73
2022/04/25 01:10:09;;;;;;;14.20;8.50;;;;;;;8.51;87.28;97105.14;105900;1276;25436;-73
2022/04/25 01:12:36;;;;;;;13.50;8.40;;;;;;;8.50;86.79;97101.94;105862;1276;137446;-73
2022/04/25 01:15:06;;;;;;;14.80;8.30;;;;;;;8.47;86.47;97105.07;106004;1277;22709;-73
2022/04/25 01:17:33;;;;;;;12.80;8.50;;;;;;;8.43;86.35;97103.36;106111;1274;24482;-73
2022/04/25 01:19:59;;;;;;;16.00;9.50;;;;;;;8.39;86.37;97109.94;105997;1274;138078;-74
2022/04/25 01:22:42;;;;;;;13.50;7.10;;;;;;;8.35;86.26;97110.95;106084;1274;22639;-73
2022/04/25 01:27:51;;;;;;;13.10;8.00;;;;;;;8.31;86.39;97108.55;105942;1276;25708;-73
2022/04/25 01:30:18;;;;;;;14.20;8.70;;;;;;;8.30;86.44;97106.80;105965;1276;22664;-74
2022/04/25 01:32:44;;;;;;;13.20;8.20;;;;;;;8.28;86.37;97110.36;105940;1275;138237;-73
2022/04/25 01:35:10;;;;;;;11.50;7.70;;;;;;;8.24;86.00;97111.81;105770;1277;24290;-73
2022/04/25 01:37:37;;;;;;;11.00;6.90;;;;;;;8.22;86.34;97116.95;105768;1277;137598;-74
2022/04/25 01:40:04;;;;;;;11.90;7.80;;;;;;;8.20;86.56;97117.54;105919;1277;25319;-74
2022/04/25 01:42:30;;;;;;;12.20;7.30;;;;;;;8.17;86.78;97114.66;105787;1277;22945;-74
2022/04/25 01:44:57;;;;;;;12.80;8.00;;;;;;;8.16;86.87;97114.60;105828;1277;137785;-73
2022/04/25 01:47:24;;;;;;;12.00;7.30;;;;;;;8.14;86.65;97113.39;105937;1277;22643;-71
2022/04/25 01:49:51;;;;;;;10.70;7.10;;;;;;;8.11;86.40;97109.02;105935;1277;138408;-74
2022/04/25 01:52:31;;;;;;;11.80;6.60;;;;;;;8.08;86.56;97105.65;106077;1274;22551;-73
2022/04/25 01:54:59;;;;;;;13.50;7.30;;;;;;;8.05;86.63;97103.25;105717;1277;137329;-72
2022/04/25 01:57:26;;;;;;;11.40;7.30;;;;;;;8.03;86.95;97111.90;106151;1276;23195;-73
2022/04/25 02:00:07;;;;;;;9.50;5.90;;;;;;;8.03;86.79;97112.52;106071;1274;25442;-73
2022/04/25 02:02:35;;;;;;;8.90;5.90;;;;;;;8.01;86.94;97110.77;105804;1277;137506;-73
2022/04/25 02:05:04;;;;;;;12.60;6.90;;;;;;;8.02;87.08;97115.75;106105;1277;25369;-73
2022/04/25 02:07:30;;;;;;;8.00;5.60;;;;;;;8.00;86.72;97121.06;106060;1276;137604;-75
2022/04/25 02:09:56;;;;;;;11.60;6.00;;;;;;;7.97;86.77;97116.22;106005;1276;22573;-73
2022/04/25 02:12:23;;;;;;;8.50;5.20;;;;;;;7.97;86.56;97113.34;105964;1276;24386;-73
2022/04/25 02:14:50;;;;;;;11.10;6.30;;;;;;;7.96;86.48;97108.50;105894;1276;137171;-74
2022/04/25 02:17:17;;;;;;;10.00;5.70;;;;;;;7.97;86.90;97104.56;106082;1276;22560;-72
2022/04/25 02:19:44;;;;;;;9.00;6.00;;;;;;;7.98;87.02;97100.66;105878;1277;137066;-73
2022/04/25 02:22:12;;;;;;;7.20;5.70;;;;;;;7.98;86.61;97099.86;106036;1277;24355;-73
2022/04/25 02:24:39;;;;;;;9.90;5.70;;;;;;;7.98;86.78;97103.33;105736;1277;139101;-73
2022/04/25 02:27:21;;;;;;;10.00;5.90;;;;;;;7.97;86.50;97102.66;105933;1277;22747;-73
2022/04/25 02:29:49;;;;;;;10.30;6.30;;;;;;;7.92;86.22;97103.81;105941;1277;22585;-73
2022/04/25 02:32:17;;;;;;;8.80;5.90;;;;;;;7.90;86.46;97107.33;105950;1277;137208;-73
2022/04/25 02:34:44;;;;;;;10.10;5.90;;;;;;;7.86;86.33;97113.11;105901;1277;24432;-74
2022/04/25 02:37:10;;;;;;;10.50;7.50;;;;;;;7.82;86.20;97122.45;106102;1277;138237;-73
2022/04/25 02:39:37;;;;;;;10.10;7.10;;;;;;;7.69;84.92;97127.98;106043;1277;24289;-73
2022/04/25 02:42:03;;;;;;;10.30;7.40;;;;;;;7.54;85.16;97128.96;105895;1277;25650;-74
2022/04/25 02:44:30;;;;;;;11.50;7.80;;;;;;;7.47;85.55;97130.15;105981;1277;137235;-73
2022/04/25 02:46:56;;;;;;;10.70;7.80;;;;;;;7.36;84.83;97132.17;105906;1277;25255;-73
2022/04/25 02:49:23;;;;;;;12.80;8.00;;;;;;;7.16;84.60;97134.90;105798;1277;137172;-73
2022/04/25 02:51:49;;;;;;;11.30;8.30;;;;;;;7.03;84.94;97142.55;105874;1277;22550;-73
2022/04/25 02:54:15;;;;;;;13.00;8.20;;;;;;;6.90;85.43;97144.64;105924;1277;22576;-73
2022/04/25 02:56:42;;;;;;;11.10;7.10;;;;;;;6.86;85.85;97142.27;105940;1274;137741;-73
2022/04/25 02:59:08;;;;;;;9.90;7.00;;;;;;;6.86;86.08;97143.41;106011;1277;22564;-73
2022/04/25 03:01:34;;;;;;;11.40;7.60;;;;;;;6.88;86.14;97148.84;105765;1277;139105;-75
2022/04/25 03:04:01;;;;;;;10.80;7.80;;;;;;;6.88;86.07;97145.74;106044;1277;22550;-73
2022/04/25 03:06:27;;;;;;;10.30;7.00;;;;;;;6.89;86.32;97151.60;106171;1277;22461;-73
2022/04/25 03:09:08;;;;;;;11.00;7.40;;;;;;;6.90;87.14;97147.44;105777;1277;137781;-73
2022/04/25 03:11:37;;;;;;;9.00;5.80;;;;;;;6.95;87.10;97150.42;106034;1277;22569;-73
2022/04/25 03:14:03;;;;;;;11.70;5.90;;;;;;;7.00;87.32;97149.56;105912;1277;137010;-73
2022/04/25 03:16:30;;;;;;;8.60;6.70;;;;;;;7.01;87.04;97147.24;105906;1277;25357;-73
2022/04/25 03:18:58;;;;;;;10.10;6.60;;;;;;;7.04;87.45;97146.36;105903;1276;137590;-73
2022/04/25 03:21:25;;;;;;;8.90;7.10;;;;;;;7.09;87.56;97148.73;105836;1276;25485;-73
2022/04/25 03:23:53;;;;;;;7.30;5.90;;;;;;;7.13;87.50;97145.86;106022;1276;25275;-74
2022/04/25 03:26:19;;;;;;;7.00;5.30;;;;;;;7.17;87.45;97146.65;106024;1274;137419;-74
2022/04/25 03:28:46;;;;;;;7.40;5.50;;;;;;;7.23;87.69;97147.09;105932;1277;25423;-74
2022/04/25 03:31:12;;;;;;;9.60;5.90;;;;;;;7.27;87.93;97150.16;106092;1277;137133;-72
2022/04/25 03:33:38;;;;;;;7.50;5.90;;;;;;;7.31;87.99;97148.86;106059;1277;24437;-73
2022/04/25 03:36:05;;;;;;;10.50;6.50;;;;;;;7.36;87.96;97146.02;105991;1277;22554;-73
2022/04/25 03:38:31;;;;;;;9.00;6.10;;;;;;;7.40;87.80;97154.57;106068;1274;138249;-73
2022/04/25 03:40:59;;;;;;;7.40;5.40;;;;;;;7.47;87.94;97146.17;106073;1277;25467;-73
2022/04/25 03:43:25;;;;;;;8.10;5.50;;;;;;;7.52;88.14;97147.46;105978;1277;137532;-73
2022/04/25 03:45:52;;;;;;;12.20;6.00;;;;;;;7.57;88.16;97149.02;106145;1277;22565;-73
2022/04/25 03:48:18;;;;;;;7.40;5.10;;;;;;;7.62;87.89;97150.86;105898;1276;23941;-73
2022/04/25 03:50:44;;;;;;;8.60;5.70;;;;;;;7.63;87.80;97150.48;105745;1277;137633;-73
2022/04/25 03:53:13;;;;;;;7.50;5.50;;;;;;;7.65;87.36;97153.91;105761;1279;25526;-73
2022/04/25 03:58:22;;;;;;;12.80;7.90;;;;;;;7.58;86.93;97152.39;106003;1276;22542;-73
2022/04/25 04:00:49;;;;;;;13.60;8.70;;;;;;;7.44;85.80;97157.05;105721;1277;137769;-73
2022/04/25 04:03:18;;;;;;;10.60;8.40;;;;;;;7.31;86.03;97161.41;105784;1277;24287;-73
2022/04/25 04:05:49;;;;;;;15.70;10.30;;;;;;;7.26;86.10;97169.54;106084;1277;25650;-73
2022/04/25 04:08:15;;;;;;;15.30;10.00;;;;;;;7.23;86.78;97168.77;106062;1275;138208;-73
2022/04/25 04:10:42;;;;;;;12.80;8.80;;;;;;;7.24;86.48;97168.48;106010;1277;24313;-72
2022/04/25 04:13:08;;;;;;;11.60;8.50;;;;;;;7.25;86.81;97169.42;105857;1277;137285;-74
2022/04/25 04:15:35;;;;;;;11.90;9.20;;;;;;;7.27;87.01;97172.59;106011;1277;24383;-72
2022/04/25 04:18:04;;;;;;;14.90;10.30;;;;;;;7.31;87.35;97172.45;106049;1277;22560;-72
2022/04/25 04:20:31;;;;;;;;;;;;;;;7.37;88.17;97170.95;105932;1277;138258;-72
2022/04/25 04:22:57;;;;;;;13.40;9.50;;;;;;;7.45;88.27;97171.46;106011;1277;22622;-72
2022/04/25 04:25:24;;;;;;;13.60;10.50;;;;;;;7.49;87.91;97176.59;105910;1274;138220;-72
2022/04/25 04:27:50;;;;;;;14.50;10.00;;;;;;;7.50;87.78;97175.41;106108;1275;22719;-72
2022/04/25 04:30:18;;;;;;;10.70;7.60;;;;;;;7.46;87.51;97176.35;105932;1276;25338;-72
2022/04/25 04:32:45;;;;;;;10.50;8.10;;;;;;;7.42;87.54;97179.11;105916;1276;137598;-72
2022/04/25 04:35:13;;;;;;;9.20;7.10;;;;;;;7.41;88.02;97180.46;105960;1274;22766;-73
2022/04/25 04:37:40;;;;;;;10.80;8.00;;;;;;;7.45;88.53;97187.34;105883;1276;137447;-72
2022/04/25 04:42:49;;;;;;;8.70;6.00;;;;;;;7.54;88.63;97191.87;105659;1277;137436;-72
2022/04/25 04:45:15;;;;;;;8.40;5.80;;;;;;;7.58;88.43;97194.17;105935;1277;24271;-72
2022/04/25 04:47:41;;;;;;;10.10;6.60;;;;;;;7.67;88.77;97194.69;105901;1277;25265;-72
2022/04/25 04:50:14;;;;;;;7.90;5.40;;;;;;;7.74;88.83;97206.07;106054;1277;138341;-72
2022/04/25 04:52:48;;;;;;;10.30;5.70;;;;;;;7.74;87.61;97210.36;105882;1277;22801;-73
2022/04/25 04:55:15;;;;;;;9.30;6.00;;;;;;;7.75;88.16;97207.83;105695;1277;138088;-72
2022/04/25 04:57:42;;;;;;;9.20;6.00;;;;;;;7.78;88.18;97201.30;106069;1277;22564;-73
2022/04/25 05:00:11;;;;;;;8.70;6.20;;;;;;;7.83;88.66;97213.36;105852;1277;22563;-73
2022/04/25 05:02:38;;;;;;;9.80;6.20;;;;;;;7.92;88.70;97208.72;105710;1277;137590;-73
2022/04/25 05:05:05;;;;;;;8.90;5.80;;;;;;;8.02;88.72;97209.66;105828;1277;24442;-73
2022/04/25 05:07:32;;;;;;;6.20;5.00;;;;;;;8.11;88.73;97207.14;105618;1278;137441;-73
2022/04/25 05:09:58;;;;;;;9.60;6.00;;;;;;;8.25;89.05;97208.80;105889;1276;25382;-73
2022/04/25 05:12:27;;;;;;;12.20;7.00;;;;;;;8.38;88.85;97210.63;105683;1276;24045;-73
2022/04/25 05:14:54;;;;;;;9.30;5.70;;;;;;;8.47;88.78;97210.77;105937;1276;137473;-73
2022/04/25 05:17:20;;;;;;;9.30;5.70;;;;;;;8.56;88.45;97219.40;105836;1277;25379;-73
2022/04/25 05:19:46;;;;;;;12.50;5.90;;;;;;;8.65;88.42;97217.53;105958;1276;137680;-73
2022/04/25 05:22:12;;;;;;;9.60;6.80;;;;;;;8.70;87.86;97216.42;105944;1277;23804;-73
2022/04/25 05:24:38;;;;;;;9.10;5.60;;;;;;;8.76;87.98;97213.80;105923;1277;23285;-73
2022/04/25 05:27:05;;;;;;;7.30;5.00;;;;;;;8.78;87.67;97218.09;105909;1277;136878;-73
2022/04/25 05:29:34;;;;;;;6.30;5.40;;;;;;;8.78;87.29;97219.23;105662;1277;22553;-73
2022/04/25 05:32:00;;;;;;;7.10;5.80;;;;;;;8.79;87.57;97220.38;105869;1277;138238;-73
2022/04/25 05:34:27;;;;;;;8.80;5.90;;;;;;;8.84;88.01;97220.35;106044;1277;22557;-72
2022/04/25 05:36:53;;;;;;;7.00;5.50;;;;;;;8.92;88.16;97224.63;105731;1278;137931;-73
2022/04/25 05:39:19;;;;;;;7.50;6.00;;;;;;;9.01;88.22;97227.55;105875;1277;23166;-73
2022/04/25 05:41:46;;;;;;;9.80;6.80;;;;;;;9.10;88.52;97232.45;105833;1279;25389;-73
2022/04/25 05:44:13;;;;;;;9.10;6.50;;;;;;;9.21;88.84;97234.58;105735;1278;137345;-73
2022/04/25 05:46:39;;;;;;;10.50;6.40;;;;;;;9.33;88.91;97232.33;105954;1276;24451;-73
2022/04/25 05:54:32;;;;;;;8.80;6.00;;;;;;;9.50;87.08;97244.22;105875;1277;24305;-73
2022/04/25 05:56:58;;;;;;;10.40;6.30;;;;;;;9.49;86.89;97246.83;105827;1277;137158;-73
2022/04/25 05:59:25;;;;;;;10.00;6.60;;;;;;;9.52;87.48;97253.57;106161;1277;25692;-73
2022/04/25 06:01:53;;;;;;;11.30;7.30;;;;;;;9.58;87.41;97253.85;105953;1277;137895;-73
2022/04/25 06:04:21;;;;;;;12.50;8.10;;;;;;;9.65;87.33;97249.52;105753;1277;22495;-73
2022/04/25 06:06:48;;;;;;;11.30;7.50;;;;;;;9.74;87.22;97246.55;105821;1277;137827;-73
2022/04/25 06:09:16;;;;;;;11.60;8.10;;;;;;;9.78;86.54;97242.96;106017;1277;24380;-73
2022/04/25 06:11:43;;;;;;;12.60;8.60;;;;;;;9.79;86.43;97241.66;105786;1276;22595;-73
2022/04/25 06:14:23;;;;;;;14.00;9.20;;;;;;;9.83;86.87;97243.36;105637;1279;137532;-72
2022/04/25 06:16:50;;;;;;;11.20;7.80;;;;;;;9.86;86.58;97242.97;105783;1279;24248;-72
2022/04/25 06:19:16;;;;;;;12.30;7.80;;;;;;;9.89;86.42;97244.84;105648;1276;138052;-73
2022/04/25 06:21:43;;;;;;;10.40;7.80;;;;;;;9.96;86.61;97245.43;105924;1276;22583;-73
2022/04/25 06:24:09;;;;;;;14.00;9.70;;;;;;;10.05;86.99;97248.15;105797;1277;25503;-73
2022/04/25 06:26:36;;;;;;;14.50;9.50;;;;;;;10.18;87.34;97249.59;105962;1277;137223;-73
2022/04/25 06:29:03;;;;;;;16.10;9.70;;;;;;;10.30;87.37;97247.95;105922;1277;22572;-73
2022/04/25 06:31:29;;;;;;;15.40;10.10;;;;;;;10.43;87.04;97252.86;105983;1276;140753;-73
2022/04/25 06:34:10;;;;;;;18.70;11.40;;;;;;;10.54;86.51;97250.84;105915;1277;22549;-73
2022/04/25 06:36:36;;;;;;;18.10;11.40;;;;;;;10.64;86.43;97252.77;105844;1279;24218;-74
2022/04/25 06:39:03;;;;;;;19.30;11.50;;;;;;;10.73;85.97;97257.66;105790;1276;137416;-73
2022/04/25 06:41:30;;;;;;;17.00;10.10;;;;;;;10.82;85.89;97258.13;105789;1279;22581;-73
2022/04/25 06:43:58;;;;;;;13.80;8.10;;;;;;;10.91;85.21;97261.00;105678;1277;138252;-74
2022/04/25 06:46:26;;;;;;;20.40;11.60;;;;;;;11.01;84.90;97262.76;105860;1277;25339;-73
2022/04/25 06:51:48;;;;;;;29.10;12.30;;;;;;;11.21;84.58;97264.05;106217;1277;22694;-74
2022/04/25 06:54:15;;;;;;;14.60;8.80;;;;;;;11.31;84.54;97266.68;105758;1277;25430;-74
2022/04/25 06:56:41;;;;;;;16.40;10.00;;;;;;;11.42;84.17;97264.89;105925;1277;137346;-73
2022/04/25 06:59:08;;;;;;;18.20;10.40;;;;;;;11.49;83.33;97265.45;106111;1277;22558;-74
2022/04/25 07:01:35;;;;;;;17.00;9.90;;;;;;;11.58;83.32;97265.58;105614;1276;138278;-74
2022/04/25 07:04:03;;;;;;;11.50;7.80;;;;;;;11.64;82.34;97263.95;105946;1276;23347;-74
2022/04/25 07:06:29;;;;;;;17.30;8.50;;;;;;;11.65;81.75;97261.77;105955;1276;24274;-74
2022/04/25 07:08:55;;;;;;;14.10;7.60;;;;;;;11.69;81.46;97267.59;105769;1276;137325;-74
2022/04/25 07:11:22;;;;;;;15.40;8.50;;;;;;;11.71;81.41;97268.06;105866;1278;22582;-74
2022/04/25 07:13:48;;;;;;;20.60;8.80;;;;;;;11.75;81.38;97266.46;105755;1277;137459;-74
2022/04/25 07:16:15;;;;;;;12.80;7.50;;;;;;;11.82;81.24;97260.80;106001;1277;22538;-73
2022/04/25 07:18:57;;;;;;;12.00;6.90;;;;;;;11.90;80.84;97254.16;105887;1277;138326;-73
2022/04/25 07:29:25;;;;;;;11.90;6.70;;;;;;;12.00;79.63;97240.04;105861;1277;25346;-73
2022/04/25 07:31:51;;;;;;;10.00;6.90;;;;;;;11.98;79.12;97239.67;106302;1277;137576;-73
2022/04/25 07:34:20;;;;;;;11.60;6.30;;;;;;;11.94;78.99;97233.85;106408;1277;30532;-73
2022/04/25 07:36:51;;;;;;;8.40;5.50;;;;;;;11.95;79.34;97235.15;106096;1278;138347;-73
2022/04/25 07:39:19;;;;;;;7.70;4.60;;;;;;;12.00;79.03;97239.42;106695;1277;22607;-73
2022/04/25 07:41:46;;;;;;;6.90;4.90;;;;;;;12.04;78.21;97241.41;106658;1277;22657;-74
2022/04/25 07:44:12;;;;;;;16.60;6.70;;;;;;;12.09;78.31;97242.58;106192;1276;137435;-73
2022/04/25 07:46:42;;;;;;;8.10;5.70;;;;;;;12.19;78.55;97247.73;106255;1276;22710;-73
2022/04/25 07:49:09;;;;;;;8.90;6.20;;;;;;;12.33;78.67;97251.17;105997;1276;137411;-73
2022/04/25 07:51:37;;;;;;;11.10;5.90;;;;;;;12.46;78.74;97251.72;106242;1276;24388;-73
2022/04/25 07:54:06;;;;;;;11.00;6.10;;;;;;;12.56;78.02;97253.00;106316;1278;23416;-73
2022/04/25 07:56:47;;;;;;;13.00;5.50;;;;;;;12.64;77.74;97260.44;106392;1277;138939;-73
2022/04/25 07:59:15;;;;;;;14.80;6.60;;;;;;;12.68;76.98;97261.13;106277;1277;25334;-73
2022/04/25 08:01:41;;;;;;;8.40;5.80;;;;;;;12.73;76.67;97260.20;106117;1277;138453;-73
2022/04/25 08:04:08;;;;;;;7.70;5.50;;;;;;;12.76;76.12;97261.98;105972;1277;478093;-73
2022/04/25 08:06:34;;;;;;;7.00;5.50;;;;;;;12.79;75.93;97263.15;106094;1277;25260;-73
2022/04/25 08:09:04;;;;;;;8.00;6.50;;;;;;;12.82;75.92;97271.26;105713;1277;137450;-73
2022/04/25 08:11:31;;;;;;;9.10;5.70;;;;;;;12.85;76.40;97274.93;105811;1277;23410;-73
2022/04/25 08:19:17;;;;;;;9.40;5.40;;;;;;;12.98;76.03;97291.70;105833;1277;137833;-73
2022/04/25 08:21:45;;;;;;;10.20;5.90;;;;;;;12.97;75.54;97287.83;106054;1277;25445;-73
2022/04/25 08:24:13;;;;;;;10.20;6.60;;;;;;;12.97;75.33;97289.96;106235;1277;22631;-73
2022/04/25 08:26:41;;;;;;;7.90;5.90;;;;;;;12.92;75.54;97291.86;105858;1277;138289;-73
2022/04/25 08:29:07;;;;;;;10.00;6.70;;;;;;;12.86;74.83;97291.39;106093;1277;25298;-73
2022/04/25 08:31:35;;;;;;;8.20;5.40;;;;;;;12.82;75.13;97295.73;106089;1277;138593;-73
2022/04/25 08:34:07;;;;;;;13.90;6.70;;;;;;;12.78;76.04;97296.86;106179;1277;24312;-73
2022/04/25 08:36:34;;;;;;;25.40;8.30;;;;;;;12.70;75.91;97290.05;106225;1277;22561;-73
2022/04/25 08:39:01;;;;;;;14.30;6.60;;;;;;;12.63;76.22;97298.42;105712;1281;137552;-73
2022/04/25 08:41:47;;;;;;;15.60;7.00;;;;;;;12.56;76.81;97301.21;106158;1277;23910;-73
2022/04/25 08:44:18;;;;;;;17.10;8.10;;;;;;;12.50;77.56;97301.48;105869;1278;137977;-73
2022/04/25 08:46:49;;;;;;;11.60;7.00;;;;;;;12.46;77.83;97305.89;105966;1277;23839;-73
2022/04/25 08:49:19;;;;;;;9.80;6.20;;;;;;;12.45;78.26;97307.32;105841;1277;138487;-73
2022/04/25 08:51:47;;;;;;;10.10;6.80;;;;;;;12.45;78.39;97307.36;106021;1277;22617;-73
2022/04/25 08:54:14;;;;;;;10.10;6.80;;;;;;;12.41;77.72;97307.90;105860;1281;25329;-73
2022/04/25 08:56:42;;;;;;;12.50;8.50;;;;;;;12.33;77.46;97306.00;105917;1278;137834;-73
2022/04/25 08:59:10;;;;;;;8.50;6.90;;;;;;;12.28;77.53;97302.15;105793;1278;25272;-73
2022/04/25 09:01:40;;;;;;;10.80;7.00;;;;;;;12.25;77.45;97302.07;105900;1278;137421;-73
2022/04/25 09:04:07;;;;;;;12.60;7.70;;;;;;;12.22;77.89;97300.58;106114;1278;22702;-73
2022/04/25 09:06:33;;;;;;;9.60;6.50;;;;;;;12.23;78.46;97300.65;106039;1281;25338;-73
2022/04/25 09:09:00;;;;;;;10.80;7.60;;;;;;;12.21;77.64;97303.35;106156;1278;138181;-73
2022/04/25 09:14:10;;;;;;;12.00;8.40;;;;;;;12.21;78.98;97304.02;106421;1276;137498;-73
2022/04/25 09:16:37;;;;;;;;;;;;;;;12.29;79.32;97309.19;106271;1278;22681;-73
2022/04/25 09:19:04;;;;;;;13.20;8.60;;;;;;;12.38;79.64;97309.61;106059;1277;124536;-73
2022/04/25 09:21:40;;;;;;;7.30;6.50;;;;;;;12.45;79.57;97313.14;105950;1278;26494;-73
2022/04/25 09:24:24;;;;;;;8.70;6.30;;;;;;;12.53;79.39;97309.71;105878;1278;22557;-73
2022/04/25 09:27:12;;;;;;;9.90;6.90;;;;;;;12.65;79.17;97315.89;105888;1277;138954;-73
2022/04/25 09:29:40;;;;;;;9.80;6.90;;;;;;;12.74;77.83;97319.15;105804;1278;22642;-72
2022/04/25 09:32:09;;;;;;;13.90;8.40;;;;;;;12.81;77.39;97322.52;105975;1278;137100;-73
2022/04/25 09:37:41;;;;;;;11.30;7.80;;;;;;;12.92;77.34;97322.20;105770;1277;137630;-73
2022/04/25 09:40:08;;;;;;;12.20;7.40;;;;;;;12.92;77.17;97328.05;106052;1278;22584;-73
2022/04/25 09:42:36;;;;;;;12.90;8.20;;;;;;;12.87;77.36;97329.07;105962;1277;22569;-73
2022/04/25 09:45:05;;;;;;;9.60;6.40;;;;;;;12.85;77.30;97330.83;105910;1278;138145;-73
2022/04/25 09:47:47;;;;;;;10.30;6.90;;;;;;;12.84;76.42;97330.30;105894;1277;31194;-73
2022/04/25 09:50:15;;;;;;;11.80;7.40;;;;;;;12.81;75.93;97326.40;105724;1279;137352;-73
2022/04/25 09:52:53;;;;;;;14.40;6.30;;;;;;;12.78;75.35;97325.33;105880;1277;25251;-73
2022/04/25 09:55:22;;;;;;;12.90;8.10;;;;;;;12.76;75.53;97322.61;105946;1277;137637;-73
2022/04/25 09:57:50;;;;;;;12.00;8.20;;;;;;;12.74;76.78;97323.89;105867;1278;22563;-73
2022/04/25 10:00:32;;;;;;;11.50;7.40;;;;;;;12.71;77.58;97329.88;106046;1277;22671;-73
2022/04/25 10:03:04;;;;;;;12.00;7.40;;;;;;;12.75;77.92;97323.40;105841;1277;138087;-73
2022/04/25 10:05:40;;;;;;;10.30;8.70;;;;;;;12.73;77.21;97319.59;106002;1277;22553;-73
2022/04/25 10:08:11;;;;;;;12.90;9.40;;;;;;;12.75;78.22;97320.93;105855;1277;138711;-73
2022/04/25 10:10:53;;;;;;;12.10;9.40;;;;;;;12.78;77.94;97322.67;105964;1277;22713;-73
2022/04/25 10:13:20;;;;;;;11.20;9.00;;;;;;;12.81;78.10;97318.69;105744;1278;138111;-73
2022/04/25 10:15:47;;;;;;;11.40;7.10;;;;;;;12.81;77.62;97322.52;105820;1281;24400;-73
2022/04/25 10:18:14;;;;;;;12.00;7.40;;;;;;;12.82;77.63;97323.00;105896;1277;22697;-73
2022/04/25 10:20:43;;;;;;;7.90;6.40;;;;;;;12.91;78.32;97321.22;105692;1277;138370;-73
2022/04/25 10:23:11;;;;;;;8.30;5.50;;;;;;;12.98;77.20;97321.14;105902;1278;22570;-73
2022/04/25 10:25:40;;;;;;;7.40;5.40;;;;;;;13.03;76.02;97318.05;105906;1278;137538;-73
2022/04/25 10:28:38;;;;;;;9.70;5.90;;;;;;;13.12;75.64;97316.36;105717;1281;24236;-73
2022/04/25 10:31:10;;;;;;;7.10;3.70;;;;;;;13.13;75.17;97319.04;105790;1278;137408;-73
2022/04/25 10:33:58;;;;;;;5.90;4.70;;;;;;;13.17;75.35;97320.14;105736;1278;22551;-73
2022/04/25 10:36:38;;;;;;;7.50;4.40;;;;;;;13.24;75.39;97318.80;105986;1278;25310;-73
2022/04/25 10:39:27;;;;;;;9.60;4.70;;;;;;;13.33;75.13;97320.16;105771;1278;137230;-73
2022/04/25 10:44:35;;;;;;;4.00;3.10;;;;;;;13.50;74.05;97318.38;105808;1277;137715;-73
2022/04/25 10:47:08;;;;;;;5.10;3.50;;;;;;;13.59;73.39;97317.77;105651;1277;22852;-73
2022/04/25 10:49:40;;;;;;;3.70;2.50;;;;;;;13.69;73.23;97315.52;105660;1277;137226;-73
2022/04/25 10:55:10;;;;;;;3.80;3.20;;;;;;;14.13;72.30;97313.21;105799;1277;138017;-73
2022/04/25 10:57:37;;;;;;;6.00;4.40;;;;;;;14.33;71.77;97318.29;105866;1277;25261;-73
2022/04/25 11:00:45;;;;;;;4.10;3.70;;;;;;;14.45;70.84;97317.11;105929;1277;24437;-72
2022/04/25 11:03:20;;;;;;;6.10;3.90;;;;;;;14.48;69.53;97311.85;105806;1277;138014;-72
2022/04/25 11:05:52;;;;;;;4.50;3.10;;;;;;;14.55;70.18;97312.84;105885;1277;25396;-72
2022/04/25 11:08:18;;;;;;;3.90;2.50;;;;;;;14.62;69.07;97314.23;105794;1277;137518;-73
2022/04/25 11:10:50;;;;;;;4.80;3.20;;;;;;;14.75;68.38;97313.08;105848;1277;24279;-72
2022/04/25 11:13:19;;;;;;;6.30;3.60;;;;;;;14.92;68.43;97313.05;105435;1281;137913;-73
2022/04/25 11:15:48;;;;;;;7.00;3.40;;;;;;;15.05;67.67;97311.77;105745;1278;22664;-73
2022/04/25 11:18:38;;;;;;;5.10;3.00;;;;;;;15.10;67.41;97313.13;106164;1277;22580;-73
2022/04/25 11:21:12;;;;;;;5.00;3.00;;;;;;;15.24;67.19;97315.21;105800;1277;137496;-74
2022/04/25 11:23:50;;;;;;;6.90;3.50;;;;;;;15.46;67.05;97316.11;105738;1277;22573;-74
2022/04/25 11:26:36;;;;;;;4.60;3.10;;;;;;;15.91;67.53;97323.27;105875;1277;137233;-73
2022/04/25 11:29:03;;;;;;;5.70;2.40;;;;;;;16.31;67.81;97328.75;105605;1277;22651;-74
2022/04/25 11:31:35;;;;;;;4.20;2.40;;;;;;;16.67;66.49;97328.94;105736;1277;137569;-73
2022/04/25 11:34:04;;;;;;;6.20;2.80;;;;;;;16.96;64.58;97327.60;105744;1279;22553;-73
2022/04/25 11:36:36;;;;;;;5.00;2.10;;;;;;;17.12;63.82;97326.52;105694;1278;22639;-74
2022/04/25 11:41:45;;;;;;;2.30;1.40;;;;;;;17.49;61.54;97330.29;105875;1277;25261;-73
2022/04/25 11:44:11;;;;;;;2.90;1.50;;;;;;;17.66;59.57;97330.38;105736;1277;138144;-73
2022/04/25 11:46:38;;;;;;;4.50;1.80;;;;;;;17.75;59.00;97336.23;105672;1280;22844;-72
2022/04/25 11:49:06;;;;;;;3.50;1.80;;;;;;;17.75;58.65;97338.83;105420;1279;137481;-74
2022/04/25 11:51:38;;;;;;;4.10;1.90;;;;;;;17.82;58.74;97337.95;105833;1277;22536;-72
2022/04/25 11:54:07;;;;;;;10.00;2.30;;;;;;;17.76;57.67;97340.23;105766;1277;25278;-71
2022/04/25 11:56:35;;;;;;;5.90;2.20;;;;;;;17.60;57.54;97343.92;105546;1278;137580;-72
2022/04/25 11:59:13;;;;;;;5.00;2.60;;;;;;;17.44;57.79;97346.52;105782;1277;22559;-72
2022/04/25 12:01:41;;;;;;;3.90;2.20;;;;;;;17.35;57.62;97344.67;105510;1278;137885;-72
2022/04/25 12:04:23;;;;;;;4.80;2.20;;;;;;;17.20;57.16;97349.73;105677;1278;25410;-73
2022/04/25 12:07:04;;;;;;;4.40;2.40;;;;;;;17.13;57.90;97348.83;105835;1280;22573;-72
2022/04/25 12:17:43;;;;;;;8.20;4.70;;;;;;;17.00;57.67;97361.21;105942;1278;22565;-72
2022/04/25 12:20:12;;;;;;;6.40;3.90;;;;;;;16.89;58.03;97365.61;105772;1278;137820;-72
2022/04/25 12:22:49;;;;;;;5.40;3.80;;;;;;;16.83;58.10;97371.73;105995;1277;22569;-73